createdAt,value
2022-09-02T00:02:40.858Z,100654.66
2022-09-02T00:12:43.279Z,100656.91
2022-09-02T00:22:45.623Z,100647.63
2022-09-02T00:32:47.958Z,100644.81
2022-09-02T00:42:52.073Z,100644.00
2022-09-02T00:53:00.660Z,100651.09
2022-09-02T01:03:07.203Z,100643.06
2022-09-02T01:13:15.687Z,100641.53
2022-09-02T01:23:18.663Z,100644.53
2022-09-02T01:33:23.197Z,100648.84
2022-09-02T01:43:29.596Z,100640.97
2022-09-02T01:53:32.522Z,100637.06
2022-09-02T02:03:37.177Z,100632.31
2022-09-02T02:13:40.739Z,100630.06
2022-09-02T02:23:43.483Z,100622.13
2022-09-02T02:33:47.748Z,100619.81
2022-09-02T02:43:51.011Z,100621.00
2022-09-02T02:53:56.896Z,100608.94
2022-09-02T03:04:02.226Z,100601.91
2022-09-02T03:14:10.648Z,100602.34
2022-09-02T03:24:15.094Z,100608.47
2022-09-02T03:34:17.599Z,100612.25
2022-09-02T03:44:20.340Z,100615.09
2022-09-02T03:54:23.164Z,100619.22
2022-09-02T04:04:26.263Z,100622.13
2022-09-02T04:14:29.248Z,100631.22
2022-09-02T04:24:32.005Z,100630.69
2022-09-02T04:34:34.818Z,100628.56
2022-09-02T04:44:37.470Z,100636.00
2022-09-02T04:54:40.117Z,100637.28
2022-09-02T05:04:43.875Z,100638.22
2022-09-02T05:14:57.022Z,100632.94
2022-09-02T05:25:00.228Z,100638.00
2022-09-02T05:35:05.647Z,100627.78
2022-09-02T05:45:09.843Z,100630.47
2022-09-02T05:55:13.362Z,100630.22
2022-09-02T06:05:19.220Z,100624.13
2022-09-02T06:15:34.198Z,100632.59
2022-09-02T06:25:43.286Z,100635.66
2022-09-02T06:35:46.821Z,100637.97
2022-09-02T06:45:55.651Z,100640.31
2022-09-02T06:55:59.409Z,100641.44
2022-09-02T07:06:13.204Z,100652.13
2022-09-02T07:16:26.658Z,100647.94
2022-09-02T07:26:31.240Z,100654.44
2022-09-02T07:36:37.682Z,100657.09
2022-09-02T07:46:43.527Z,100660.16
2022-09-02T07:56:52.216Z,100657.88
2022-09-02T08:06:56.474Z,100655.63
2022-09-02T08:16:59.271Z,100648.66
2022-09-02T08:27:03.153Z,100658.56
2022-09-02T08:37:06.935Z,100657.66
2022-09-02T08:47:15.900Z,100655.72
2022-09-02T08:57:19.154Z,100660.72
2022-09-02T09:07:45.531Z,100669.59
2022-09-02T09:17:50.724Z,100672.25
2022-09-02T09:27:53.337Z,100672.69
2022-09-02T09:37:56.849Z,100681.47
2022-09-02T09:48:23.168Z,100682.66
2022-09-02T09:58:43.636Z,100684.25
2022-09-02T10:08:57.233Z,100689.25
2022-09-02T10:19:37.331Z,100691.53
2022-09-02T10:30:34.753Z,100686.97
2022-09-02T10:41:03.656Z,100684.63
2022-09-02T10:51:12.284Z,100694.59
2022-09-02T11:01:39.596Z,100697.28
2022-09-02T11:12:00.114Z,100697.66
2022-09-02T11:22:12.454Z,100698.72
2022-09-02T11:32:38.429Z,100686.47
2022-09-02T11:43:00.216Z,100686.09
2022-09-02T11:53:37.043Z,100693.59
2022-09-02T12:04:27.253Z,100682.59
2022-09-02T12:14:14.004Z,100672.19
2022-09-02T12:24:21.156Z,100679.06
2022-09-02T12:34:24.125Z,100679.38
2022-09-02T12:44:32.782Z,100679.66
2022-09-02T12:54:50.870Z,100679.41
2022-09-02T13:05:02.453Z,100677.53
2022-09-02T13:15:23.925Z,100675.28
2022-09-02T13:26:13.158Z,100675.69
2022-09-02T13:36:45.712Z,100664.97
2022-09-02T13:46:56.080Z,100656.09
2022-09-02T13:57:01.763Z,100646.13
2022-09-02T14:07:08.177Z,100648.41
2022-09-02T14:17:22.448Z,100650.94
2022-09-02T14:27:25.657Z,100650.13
2022-09-02T14:37:28.911Z,100654.59
2022-09-02T14:47:38.460Z,100664.16
2022-09-02T14:57:44.730Z,100659.56
2022-09-02T15:07:48.452Z,100650.00
2022-09-02T15:17:52.455Z,100642.19
2022-09-02T15:27:55.489Z,100652.16
2022-09-02T15:38:20.785Z,100640.63
2022-09-02T15:48:27.550Z,100630.81
2022-09-02T15:58:33.369Z,100636.50
2022-09-02T16:08:38.122Z,100638.00
2022-09-02T16:18:41.901Z,100637.88
2022-09-02T16:28:53.639Z,100624.59
2022-09-02T16:38:58.343Z,100625.81
2022-09-02T16:49:01.156Z,100626.19
2022-09-02T16:59:07.349Z,100635.91
2022-09-02T17:09:16.578Z,100633.56
2022-09-02T17:19:26.250Z,100642.53
2022-09-02T17:29:48.660Z,100633.78
2022-09-02T17:39:54.509Z,100634.53
2022-09-02T17:49:59.164Z,100644.78
2022-09-02T18:00:07.916Z,100652.81
2022-09-02T18:10:14.218Z,100656.53
2022-09-02T18:20:26.026Z,100657.94
2022-09-02T18:30:48.689Z,100655.69
2022-09-02T18:41:12.232Z,100648.78
2022-09-02T18:51:39.354Z,100643.78
2022-09-02T19:01:48.968Z,100652.13
2022-09-02T19:11:52.464Z,100656.31
2022-09-02T19:22:02.207Z,100645.13
2022-09-02T19:32:05.434Z,100651.97
2022-09-02T19:42:08.301Z,100658.50
2022-09-02T19:52:12.418Z,100670.50
2022-09-02T20:02:15.521Z,100672.38
2022-09-02T20:12:19.673Z,100669.25
2022-09-02T20:22:22.791Z,100669.53
2022-09-02T20:32:31.210Z,100666.16
2022-09-02T20:42:58.637Z,100670.00
2022-09-02T20:53:15.460Z,100661.34
2022-09-02T21:03:24.926Z,100656.44
2022-09-02T21:13:49.548Z,100650.63
2022-09-02T21:24:03.382Z,100642.31
2022-09-02T21:34:15.651Z,100656.44
2022-09-02T21:44:24.118Z,100658.28
2022-09-02T21:54:56.318Z,100658.94
2022-09-02T22:05:07.183Z,100652.94
2022-09-02T22:15:56.704Z,100661.66
2022-09-02T22:26:31.713Z,100666.91
2022-09-02T22:36:58.503Z,100657.66
2022-09-02T22:47:24.903Z,100654.13
2022-09-02T22:57:41.263Z,100653.75
2022-09-02T23:07:44.615Z,100642.31
2022-09-02T23:17:58.078Z,100651.91
2022-09-02T23:28:32.659Z,100637.03
2022-09-02T23:38:47.117Z,100643.72
2022-09-02T23:49:22.370Z,100650.66
2022-09-02T23:59:46.368Z,100631.47
